Time;durP1;ratioP1;P1;durP2;ratioP2;P2;SDS_P1;SDS_P2;PMS_P1;PMS_P2;Temp;Humidity;BMP_temperature;BMP_pressure;BME280_temperature;BME280_humidity;BME280_pressure;Samples;Min_cycle;Max_cycle;Signal;HPM_P1;HPM_P2
2023/02/16 00:01:34;;;;;;;30.80;20.40;;;;;;;2.43;82.85;96115.56;5092711;28;20520;-76
2023/02/16 00:04:01;;;;;;;36.40;20.57;;;;;;;2.43;83.25;96113.81;5092556;28;20959;-76
2023/02/16 00:06:29;;;;;;;32.37;20.30;;;;;;;2.43;82.93;96113.81;5092472;28;20440;-76
2023/02/16 00:08:56;;;;;;;28.83;18.80;;;;;;;2.44;83.17;96114.66;5092384;28;20779;-77
2023/02/16 00:14:15;;;;;;;33.43;18.27;;;;;;;2.48;84.18;96117.09;5092298;28;20443;-75
2023/02/16 00:16:42;;;;;;;34.33;19.10;;;;;;;2.51;83.42;96112.72;5091605;28;20439;-75
2023/02/16 00:19:21;;;;;;;32.60;19.80;;;;;;;2.52;83.12;96117.00;5092226;28;20446;-76
2023/02/16 00:21:49;;;;;;;31.60;18.87;;;;;;;2.48;81.50;96116.25;5092342;28;20450;-76
2023/02/16 00:24:16;;;;;;;37.93;20.20;;;;;;;2.51;81.53;96110.13;5091915;28;20451;-75
2023/02/16 00:26:46;;;;;;;28.40;16.53;;;;;;;2.48;81.98;96117.09;5092107;28;20452;-75
2023/02/16 00:29:19;;;;;;;40.37;21.07;;;;;;;2.45;81.94;96117.22;5092057;28;20451;-75
2023/02/16 00:31:46;;;;;;;35.13;18.73;;;;;;;2.39;81.57;96116.56;5091826;28;21050;-76
2023/02/16 00:34:25;;;;;;;32.83;20.17;;;;;;;2.30;82.25;96115.09;5092055;28;20439;-76
2023/02/16 00:36:52;;;;;;;29.15;18.27;;;;;;;2.27;81.97;96112.63;5073001;28;20796;-75
2023/02/16 00:39:19;;;;;;;37.17;18.03;;;;;;;2.26;81.89;96108.34;5091937;28;20193;-75
2023/02/16 00:41:51;;;;;;;34.20;18.60;;;;;;;2.26;82.62;96108.34;5091857;28;20497;-75
2023/02/16 00:44:21;;;;;;;28.65;19.05;;;;;;;2.25;82.56;96111.81;5091919;28;20478;-75
2023/02/16 00:46:48;;;;;;;32.67;19.60;;;;;;;2.26;82.22;96110.94;5091832;28;20840;-75
2023/02/16 00:49:15;;;;;;;37.47;18.80;;;;;;;2.24;81.95;96112.72;5091977;28;20442;-76
2023/02/16 00:51:42;;;;;;;32.70;19.10;;;;;;;2.24;82.12;96115.31;5091864;28;20489;-76
2023/02/16 00:54:09;;;;;;;33.43;18.50;;;;;;;2.20;82.58;96107.69;5091968;28;20201;-75
2023/02/16 00:56:36;;;;;;;38.40;19.93;;;;;;;2.30;81.42;96116.84;5091701;28;20494;-75
2023/02/16 00:59:07;;;;;;;30.23;16.73;;;;;;;2.30;81.24;96112.53;5092062;28;20443;-75
2023/02/16 01:01:35;;;;;;;29.03;17.30;;;;;;;2.35;81.40;96110.66;5091949;28;20455;-75
2023/02/16 01:04:06;;;;;;;33.73;18.00;;;;;;;2.34;80.34;96113.28;5091948;28;20594;-75
2023/02/16 01:12:08;;;;;;;29.30;18.93;;;;;;;1.97;82.22;96106.69;5091605;28;20858;-75
2023/02/16 01:14:36;;;;;;;38.87;23.90;;;;;;;1.85;81.75;96110.53;5091823;28;20444;-75
2023/02/16 01:17:03;;;;;;;43.33;21.10;;;;;;;1.78;82.45;96103.00;5091585;28;20439;-75
2023/02/16 01:19:30;;;;;;;36.83;22.17;;;;;;;1.75;82.49;96098.78;5091585;28;20492;-75
2023/02/16 01:21:56;;;;;;;44.27;23.23;;;;;;;1.71;82.40;96097.16;5091992;28;20256;-75
2023/02/16 01:24:23;;;;;;;45.10;25.98;;;;;;;1.61;82.53;96095.75;5091468;28;20457;-75
2023/02/16 01:26:51;;;;;;;49.22;28.40;;;;;;;1.60;83.31;96085.44;5072635;28;20247;-76
2023/02/16 01:29:19;;;;;;;64.03;33.25;;;;;;;1.56;83.09;96095.06;5093998;28;20648;-75
2023/02/16 01:31:47;;;;;;;60.42;32.88;;;;;;;1.59;83.09;96091.53;5095406;28;20197;-76
2023/02/16 01:34:14;;;;;;;53.13;32.90;;;;;;;1.60;83.21;96083.72;5095306;28;20618;-76
2023/02/16 01:36:43;;;;;;;56.43;30.27;;;;;;;1.60;83.33;96082.88;5095123;28;20201;-76
2023/02/16 01:39:13;;;;;;;56.50;31.27;;;;;;;1.60;82.96;96086.28;5095229;28;20497;-76
2023/02/16 01:41:59;;;;;;;47.33;26.40;;;;;;;1.59;82.14;96082.03;5095159;28;20530;-76
2023/02/16 01:44:31;;;;;;;40.90;24.20;;;;;;;1.61;81.84;96074.22;5075902;28;20435;-76
2023/02/16 01:47:05;;;;;;;43.80;25.00;;;;;;;1.61;81.46;96069.88;5095273;28;20278;-75
2023/02/16 01:49:32;;;;;;;37.47;22.95;;;;;;;1.61;81.67;96069.88;5094942;28;20496;-75
2023/02/16 01:52:05;;;;;;;36.87;22.17;;;;;;;1.65;82.02;96076.66;5094961;28;20201;-75
2023/02/16 01:54:38;;;;;;;36.50;21.03;;;;;;;1.60;82.21;96068.19;5094939;28;20491;-76
2023/02/16 01:57:19;;;;;;;38.65;22.83;;;;;;;1.61;82.54;96066.44;5094714;28;20435;-76
2023/02/16 02:00:04;;;;;;;33.72;20.23;;;;;;;1.58;82.24;96064.81;5095103;28;20224;-75
2023/02/16 02:02:36;;;;;;;29.70;16.77;;;;;;;1.58;81.97;96069.97;5094878;28;20198;-75
2023/02/16 02:07:58;;;;;;;31.08;16.52;;;;;;;1.54;82.74;96068.38;5094667;28;20204;-76
2023/02/16 02:10:33;;;;;;;27.60;15.65;;;;;;;1.58;82.89;96069.13;5094642;28;20228;-75
2023/02/16 02:13:07;;;;;;;26.33;15.20;;;;;;;1.54;82.79;96068.38;5094672;28;20274;-76
2023/02/16 02:15:35;;;;;;;29.13;14.60;;;;;;;1.58;82.79;96072.56;5094510;28;20439;-75
2023/02/16 02:18:03;;;;;;;26.50;15.13;;;;;;;1.60;82.77;96078.53;5094938;28;20435;-76
2023/02/16 02:23:45;;;;;;;23.95;14.40;;;;;;;1.63;82.78;96082.78;5094417;28;20533;-75
2023/02/16 02:26:48;;;;;;;25.98;14.27;;;;;;;1.68;82.65;96075.72;5094389;28;20284;-76
2023/02/16 02:29:28;;;;;;;23.98;14.00;;;;;;;1.65;82.22;96071.47;5094443;28;20193;-76
2023/02/16 02:32:05;;;;;;;22.45;15.13;;;;;;;1.65;81.89;96071.47;5094072;28;20208;-77
2023/02/16 02:34:54;;;;;;;27.48;15.20;;;;;;;1.65;81.44;96070.63;5094090;28;20224;-76
2023/02/16 02:37:29;;;;;;;26.08;16.30;;;;;;;1.61;81.07;96064.72;5094180;28;20205;-76
2023/02/16 02:40:06;;;;;;;29.70;17.10;;;;;;;1.64;80.44;96064.59;5093867;28;20200;-76
2023/02/16 02:42:43;;;;;;;29.60;15.40;;;;;;;1.57;79.80;96062.28;5093860;28;20852;-76
2023/02/16 02:45:15;;;;;;;21.08;15.55;;;;;;;1.57;80.28;96067.44;5093945;28;20250;-76
2023/02/16 02:47:44;;;;;;;21.42;13.88;;;;;;;1.58;80.12;96069.97;5093770;28;20235;-76
2023/02/16 02:50:40;;;;;;;25.13;14.73;;;;;;;1.60;80.71;96065.59;5093696;28;20266;-76
2023/02/16 02:53:12;;;;;;;23.70;14.00;;;;;;;1.59;80.85;96065.66;5093571;28;20548;-76
2023/02/16 03:01:19;;;;;;;20.25;12.70;;;;;;;1.48;82.15;96066.00;5093560;28;20800;-76
2023/02/16 03:03:50;;;;;;;23.50;13.50;;;;;;;1.49;82.19;96065.94;5093485;28;20250;-76
2023/02/16 03:06:21;;;;;;;23.27;14.35;;;;;;;1.47;82.56;96061.72;5093784;28;20205;-75
2023/02/16 03:08:54;;;;;;;24.17;13.90;;;;;;;1.46;82.75;96072.97;5093593;28;20600;-76
2023/02/16 03:14:13;;;;;;;24.95;14.23;;;;;;;1.43;82.03;96071.28;5093330;28;20596;-76
2023/02/16 03:16:45;;;;;;;24.33;14.32;;;;;;;1.44;82.10;96067.81;5094004;28;20201;-75
2023/02/16 03:30:24;;;;;;;24.98;14.50;;;;;;;1.39;81.79;96066.25;5092982;28;20983;-75
2023/02/16 03:32:51;;;;;;;25.65;14.40;;;;;;;1.33;81.42;96061.28;5092752;28;20276;-75
2023/02/16 03:35:18;;;;;;;25.05;14.75;;;;;;;1.28;81.64;96065.72;5093395;28;20259;-75
2023/02/16 03:37:46;;;;;;;22.45;14.02;;;;;;;1.25;81.17;96061.50;5093047;28;20205;-75
2023/02/16 03:40:28;;;;;;;26.00;15.30;;;;;;;1.18;81.52;96063.44;5093031;28;20201;-75
2023/02/16 03:42:57;;;;;;;28.73;14.10;;;;;;;1.16;81.41;96062.63;5092904;28;20443;-76
2023/02/16 03:45:26;;;;;;;21.00;13.80;;;;;;;1.16;81.77;96062.63;5092687;28;20293;-75
2023/02/16 03:47:53;;;;;;;25.88;14.65;;;;;;;1.16;82.25;96060.03;5092941;28;20204;-76
2023/02/16 03:50:20;;;;;;;21.50;12.85;;;;;;;1.09;82.87;96060.25;5073622;28;20198;-76
2023/02/16 03:52:47;;;;;;;26.27;15.43;;;;;;;1.10;82.74;96062.78;5092044;28;20286;-78
2023/02/16 03:55:14;;;;;;;25.40;14.70;;;;;;;1.13;86.55;96061.84;5092518;28;20209;-77
2023/02/16 03:57:41;;;;;;;26.93;15.47;;;;;;;1.35;89.20;96069.81;5092529;28;20193;-77
2023/02/16 04:00:08;;;;;;;33.40;15.95;;;;;;;1.61;89.19;96066.44;5092343;28;20508;-77
2023/02/16 04:02:37;;;;;;;26.97;16.27;;;;;;;1.84;87.15;96056.22;5056662;28;20611;-77
2023/02/16 04:05:04;;;;;;;27.57;16.70;;;;;;;2.00;85.54;96054.81;5092715;28;20497;-77
2023/02/16 04:07:31;;;;;;;23.23;14.90;;;;;;;2.13;83.42;96052.69;5092538;28;20516;-77
2023/02/16 04:09:57;;;;;;;31.17;17.60;;;;;;;2.06;80.33;96056.38;5093024;28;20501;-76
2023/02/16 04:12:35;;;;;;;22.98;14.95;;;;;;;1.97;78.94;96041.13;5093173;28;20963;-80
2023/02/16 04:15:03;;;;;;;28.50;16.53;;;;;;;1.86;78.75;96050.09;5093462;28;20205;-79
2023/02/16 04:17:30;;;;;;;25.63;15.45;;;;;;;1.76;78.82;96046.13;5093161;28;20518;-77
2023/02/16 04:19:58;;;;;;;25.73;15.13;;;;;;;1.70;79.08;96048.88;5093010;28;20205;-78
2023/02/16 04:22:24;;;;;;;26.65;16.13;;;;;;;1.65;79.19;96045.59;5074402;28;20209;-78
2023/02/16 04:24:51;;;;;;;27.73;16.77;;;;;;;1.57;79.29;96044.16;5057113;28;20636;-78
2023/02/16 04:27:18;;;;;;;25.92;16.05;;;;;;;1.47;79.83;96043.63;5093435;28;20652;-78
2023/02/16 04:29:45;;;;;;;32.20;19.40;;;;;;;2.09;95.45;96035.56;5093166;28;20687;-78
2023/02/16 04:32:12;;;;;;;35.90;21.67;;;;;;;1.91;85.89;96046.53;5092688;28;20452;-77
2023/02/16 04:34:39;;;;;;;40.83;24.97;;;;;;;1.46;81.62;96047.09;5092891;28;20494;-77
2023/02/16 04:37:07;;;;;;;41.13;24.63;;;;;;;1.34;80.98;96052.63;5092748;28;20451;-77
2023/02/16 04:39:34;;;;;;;47.50;28.38;;;;;;;1.28;80.40;96055.41;5092901;28;20262;-77
2023/02/16 04:42:00;;;;;;;48.85;29.42;;;;;;;1.07;80.53;96060.28;5092723;28;20202;-78
2023/02/16 04:44:27;;;;;;;55.78;30.25;;;;;;;0.91;81.23;96052.16;5093058;28;20205;-77
2023/02/16 04:46:54;;;;;;;60.08;31.83;;;;;;;0.85;81.89;96062.63;5092759;28;20197;-78
2023/02/16 04:49:21;;;;;;;75.55;39.20;;;;;;;0.58;83.31;96047.94;5092849;28;20205;-78
2023/02/16 04:51:48;;;;;;;62.85;35.72;;;;;;;0.69;84.01;96063.13;5092788;28;20652;-78
2023/02/16 04:54:16;;;;;;;59.70;36.72;;;;;;;0.72;84.07;96060.44;5092713;28;20233;-78
2023/02/16 04:56:44;;;;;;;194.07;101.07;;;;;;;3.06;100.00;96054.59;5092981;28;20201;-78
2023/02/16 04:59:11;;;;;;;63.00;38.90;;;;;;;5.54;85.51;96069.41;5092956;28;20288;-78
2023/02/16 05:01:43;;;;;;;65.53;39.47;;;;;;;4.93;77.72;96067.81;5092353;28;20443;-79
2023/02/16 05:04:10;;;;;;;60.00;37.43;;;;;;;4.39;73.85;96071.00;5054813;28;20491;-78
2023/02/16 05:06:38;;;;;;;64.27;39.23;;;;;;;3.97;71.79;96077.03;5075888;28;20449;-77
2023/02/16 05:09:06;;;;;;;70.90;39.00;;;;;;;3.59;71.41;96072.50;5076177;28;20448;-78
2023/02/16 05:17:05;;;;;;;73.70;38.03;;;;;;;2.52;76.75;96073.78;5075903;28;20431;-78
2023/02/16 05:19:31;;;;;;;70.20;39.07;;;;;;;2.26;76.96;96069.50;5076269;28;20445;-78
2023/02/16 05:21:59;;;;;;;73.67;39.93;;;;;;;2.03;77.89;96077.19;5076231;28;20491;-78
2023/02/16 05:24:26;;;;;;;76.47;41.65;;;;;;;1.87;78.73;96084.59;5075918;28;20476;-78
2023/02/16 05:26:54;;;;;;;68.75;40.45;;;;;;;1.70;79.28;96079.94;5076188;28;20707;-77
2023/02/16 05:29:21;;;;;;;74.40;42.78;;;;;;;1.61;80.56;96079.38;5075791;28;20263;-78
2023/02/16 05:31:48;;;;;;;69.03;38.33;;;;;;;4.90;100.00;96078.31;5078463;28;20230;-79
2023/02/16 05:34:15;;;;;;;68.77;39.50;;;;;;;7.41;78.96;96078.31;5076414;28;20545;-79
2023/02/16 05:36:42;;;;;;;76.87;41.20;;;;;;;7.51;67.87;96078.66;5075880;28;20976;-78
2023/02/16 05:39:08;;;;;;;78.07;44.53;;;;;;;7.09;63.35;96071.34;5076296;28;20819;-79
2023/02/16 05:41:35;;;;;;;88.13;51.60;;;;;;;6.70;61.66;96082.91;5076639;28;20976;-78
2023/02/16 05:44:04;;;;;;;88.90;51.10;;;;;;;6.45;62.64;96085.03;5075485;28;20848;-78
2023/02/16 05:46:34;;;;;;;85.13;50.80;;;;;;;6.31;62.59;96088.31;5075854;28;20792;-78
2023/02/16 05:49:02;;;;;;;87.30;50.20;;;;;;;6.26;62.99;96084.25;5075212;28;20502;-77
2023/02/16 05:51:29;;;;;;;74.50;46.57;;;;;;;6.32;63.77;96083.94;5090115;28;20459;-78
2023/02/16 05:53:56;;;;;;;82.20;46.90;;;;;;;6.44;62.29;96083.34;5075088;28;20485;-78
2023/02/16 05:56:23;;;;;;;72.83;47.43;;;;;;;6.55;61.84;96088.88;5075312;28;20445;-77
2023/02/16 05:58:51;;;;;;;101.10;52.90;;;;;;;6.72;62.09;96088.88;5075251;28;20449;-78
2023/02/16 06:01:19;;;;;;;83.23;44.77;;;;;;;6.99;61.71;96093.63;5075244;28;20444;-78
2023/02/16 06:03:47;;;;;;;71.77;44.27;;;;;;;7.27;59.79;96093.88;5074984;28;21256;-77
2023/02/16 06:06:14;;;;;;;87.77;52.40;;;;;;;7.44;58.54;96091.19;5075542;28;20441;-78
2023/02/16 06:08:40;;;;;;;92.27;51.83;;;;;;;7.74;60.18;96074.78;5074977;28;20499;-78
2023/02/16 06:11:34;;;;;;;75.80;47.67;;;;;;;7.93;58.86;96091.16;5075139;28;21050;-77
2023/02/16 06:13:57;;;;;;;79.83;49.20;;;;;;;8.04;57.17;96094.00;5074220;28;20540;-77
2023/02/16 06:16:25;;;;;;;87.63;52.77;;;;;;;8.08;56.83;96095.53;5074923;28;20482;-77
2023/02/16 06:18:53;;;;;;;87.43;58.30;;;;;;;8.04;56.61;96099.25;5075059;28;20469;-77
2023/02/16 06:21:20;;;;;;;90.73;61.00;;;;;;;7.93;57.09;96106.84;5074845;28;20530;-77
2023/02/16 06:23:47;;;;;;;98.83;57.70;;;;;;;7.99;58.05;96106.50;5074609;28;20529;-77
2023/02/16 06:26:14;;;;;;;77.47;50.40;;;;;;;8.03;57.74;96108.00;5075006;28;20847;-77
2023/02/16 06:28:41;;;;;;;89.47;52.27;;;;;;;8.11;61.21;96109.38;5090353;28;20446;-78
2023/02/16 06:31:07;;;;;;;81.57;50.17;;;;;;;8.16;60.06;96109.97;5056693;28;20481;-77
2023/02/16 06:33:36;;;;;;;86.90;50.43;;;;;;;8.22;60.13;96122.69;5075241;28;20490;-78
2023/02/16 06:36:02;;;;;;;69.20;46.70;;;;;;;8.12;57.89;96130.22;5055823;28;20809;-78
2023/02/16 06:38:29;;;;;;;53.60;34.40;;;;;;;7.83;58.32;96126.56;5074575;28;20454;-78
2023/02/16 06:40:56;;;;;;;62.57;37.53;;;;;;;7.65;60.30;96138.00;5074569;28;20453;-77
2023/02/16 06:43:23;;;;;;;53.67;38.20;;;;;;;7.29;59.38;96135.56;5074362;28;20462;-77
2023/02/16 06:45:49;;;;;;;57.00;34.90;;;;;;;6.67;60.89;96137.00;5075878;28;20448;-77
2023/02/16 06:48:16;;;;;;;53.50;35.27;;;;;;;6.78;63.95;96135.53;5094383;28;20916;-77
2023/02/16 06:50:44;;;;;;;52.37;35.17;;;;;;;6.87;63.80;96135.97;5094001;28;20502;-77
2023/02/16 06:53:11;;;;;;;62.80;35.63;;;;;;;6.79;62.63;96132.00;5094381;28;20448;-77
2023/02/16 06:55:38;;;;;;;57.13;34.57;;;;;;;6.49;63.14;96130.91;5094234;28;20533;-77
2023/02/16 06:58:06;;;;;;;63.43;37.47;;;;;;;6.34;64.89;96140.28;5093741;28;20439;-77
2023/02/16 07:00:33;;;;;;;58.50;34.77;;;;;;;6.54;66.25;96131.50;5080568;28;20833;-77
2023/02/16 07:03:00;;;;;;;56.47;35.10;;;;;;;6.71;64.36;96134.16;5061614;28;20439;-77
2023/02/16 07:05:27;;;;;;;52.67;34.93;;;;;;;6.68;63.07;96128.25;5092210;28;20459;-77
2023/02/16 07:07:55;;;;;;;57.40;35.87;;;;;;;6.51;63.56;96127.28;5091603;28;20906;-78
2023/02/16 07:10:22;;;;;;;61.30;33.90;;;;;;;6.42;64.70;96132.97;5093982;28;20489;-78
2023/02/16 07:12:49;;;;;;;55.67;36.00;;;;;;;6.32;65.06;96125.66;5093451;28;20508;-77
2023/02/16 07:15:16;;;;;;;62.00;33.80;;;;;;;6.17;66.03;96124.63;5093550;28;20564;-77
2023/02/16 07:17:43;;;;;;;65.33;38.50;;;;;;;6.01;66.74;96121.06;5093477;28;20500;-78
2023/02/16 07:20:12;;;;;;;61.47;36.10;;;;;;;5.79;67.55;96121.19;5093859;28;20448;-77
2023/02/16 07:22:38;;;;;;;70.73;34.67;;;;;;;5.86;68.75;96113.03;5093330;28;20531;-77
2023/02/16 07:25:07;;;;;;;56.83;34.07;;;;;;;5.71;68.66;96108.50;5085471;28;20476;-77
2023/02/16 07:27:34;;;;;;;57.67;35.97;;;;;;;5.74;68.42;96104.91;5087150;28;20466;-78
2023/02/16 07:30:01;;;;;;;62.23;35.80;;;;;;;5.64;70.31;96108.88;5088314;28;20979;-76
2023/02/16 07:32:29;;;;;;;56.30;35.17;;;;;;;5.41;70.47;96097.75;5093693;28;20934;-77
2023/02/16 07:34:56;;;;;;;63.60;36.00;;;;;;;5.52;70.34;96103.31;5086949;28;20912;-79
2023/02/16 07:37:23;;;;;;;66.67;37.87;;;;;;;5.33;71.69;96096.41;5093006;28;20831;-78
2023/02/16 07:39:49;;;;;;;61.47;36.60;;;;;;;5.12;73.84;96100.78;5092727;28;20512;-78
2023/02/16 07:42:17;;;;;;;67.43;36.50;;;;;;;4.78;74.63;96104.00;5074238;28;20443;-77
2023/02/16 07:44:44;;;;;;;61.07;37.50;;;;;;;4.29;76.79;96101.69;5093177;28;20505;-77
2023/02/16 07:47:12;;;;;;;61.00;35.00;;;;;;;4.27;77.15;96098.31;5093277;28;20949;-77
2023/02/16 07:49:41;;;;;;;62.13;37.83;;;;;;;4.08;78.86;96094.78;5093294;28;20451;-77
2023/02/16 07:52:15;;;;;;;66.97;35.37;;;;;;;4.04;79.73;96098.38;5073876;28;20523;-78
2023/02/16 07:54:42;;;;;;;63.30;34.33;;;;;;;4.07;78.98;96094.84;5092232;28;20543;-77
2023/02/16 07:57:09;;;;;;;74.67;37.97;;;;;;;4.01;80.86;96101.97;5092471;28;20494;-77
2023/02/16 07:59:38;;;;;;;68.20;38.43;;;;;;;4.04;81.63;96091.44;5092190;28;20949;-78
2023/02/16 08:02:09;;;;;;;68.07;39.17;;;;;;;4.04;81.57;96106.19;5092408;28;20448;-78
2023/02/16 08:04:36;;;;;;;74.07;40.37;;;;;;;3.91;80.37;96099.78;5092589;28;20534;-77
2023/02/16 08:07:07;;;;;;;73.97;42.67;;;;;;;3.72;83.10;96103.09;5072960;28;20828;-77
2023/02/16 08:09:34;;;;;;;68.40;42.80;;;;;;;3.95;82.44;96102.22;5057704;28;20431;-78
2023/02/16 08:12:01;;;;;;;77.47;41.90;;;;;;;4.11;81.73;96106.81;5092004;28;20494;-77
2023/02/16 08:14:27;;;;;;;78.43;42.97;;;;;;;4.02;82.02;96113.19;5092218;28;20532;-78
2023/02/16 08:16:56;;;;;;;93.20;43.83;;;;;;;4.20;81.63;96109.88;5092062;28;20815;-77
2023/02/16 08:19:22;;;;;;;85.87;48.20;;;;;;;4.27;82.10;96118.25;5092186;28;20536;-77
2023/02/16 08:21:49;;;;;;;74.13;44.20;;;;;;;3.85;82.91;96111.28;5091994;28;20861;-77
2023/02/16 08:24:16;;;;;;;77.63;43.90;;;;;;;4.04;83.25;96119.16;5091660;28;20443;-77
2023/02/16 08:26:43;;;;;;;92.20;44.30;;;;;;;4.24;82.17;96119.22;5072864;28;20462;-77
2023/02/16 08:29:11;;;;;;;82.90;44.73;;;;;;;4.40;82.36;96116.03;5073139;28;20529;-77
2023/02/16 08:31:40;;;;;;;75.33;40.87;;;;;;;4.49;82.93;96121.69;5092165;28;20522;-77
2023/02/16 08:34:08;;;;;;;71.67;40.80;;;;;;;4.53;81.33;96123.22;5091806;28;20477;-77
2023/02/16 08:36:37;;;;;;;75.57;42.50;;;;;;;4.58;80.97;96115.25;5092018;28;20938;-77
2023/02/16 08:39:13;;;;;;;72.43;42.17;;;;;;;4.64;81.77;96125.41;5091151;28;20447;-77
2023/02/16 08:41:40;;;;;;;72.43;40.83;;;;;;;4.84;82.33;96128.00;5091721;28;20482;-77
2023/02/16 08:44:09;;;;;;;68.60;40.03;;;;;;;4.98;80.88;96128.25;5091523;28;20865;-77
2023/02/16 08:46:39;;;;;;;76.97;41.63;;;;;;;5.17;79.59;96112.69;5091938;28;20792;-77
2023/02/16 08:49:08;;;;;;;77.20;41.63;;;;;;;5.35;80.46;96112.78;5091574;28;20930;-77
2023/02/16 08:51:37;;;;;;;63.23;39.40;;;;;;;5.54;78.50;96122.31;5092253;28;20440;-77
2023/02/16 08:54:05;;;;;;;85.57;44.90;;;;;;;5.75;77.34;96124.84;5091599;28;20925;-77
2023/02/16 08:56:33;;;;;;;72.67;40.20;;;;;;;5.87;77.04;96114.72;5091588;28;20535;-77
2023/02/16 08:59:00;;;;;;;68.27;38.20;;;;;;;6.16;76.57;96110.75;5091715;28;20446;-76
2023/02/16 09:01:27;;;;;;;68.00;40.00;;;;;;;6.32;74.87;96110.00;5091710;28;20449;-76
2023/02/16 09:03:54;;;;;;;72.67;39.17;;;;;;;6.48;74.20;96105.75;5091645;28;20440;-77
2023/02/16 09:06:23;;;;;;;72.30;40.53;;;;;;;6.62;73.84;96112.88;5091603;28;20440;-77
2023/02/16 09:08:51;;;;;;;62.87;38.67;;;;;;;6.70;72.69;96113.34;5091681;28;20444;-77
2023/02/16 09:11:19;;;;;;;66.13;39.03;;;;;;;6.71;72.44;96104.59;5091506;28;20509;-77
2023/02/16 09:13:46;;;;;;;61.10;37.53;;;;;;;6.93;72.30;96106.94;5091591;28;20846;-77
2023/02/16 09:16:15;;;;;;;57.20;37.53;;;;;;;6.98;70.96;96103.22;5091063;28;20856;-77
2023/02/16 09:18:43;;;;;;;69.83;39.70;;;;;;;6.98;71.55;96105.81;5091540;28;20531;-77
2023/02/16 09:21:13;;;;;;;65.63;37.50;;;;;;;7.12;71.68;96092.06;5091965;28;21026;-78
2023/02/16 09:23:46;;;;;;;68.57;39.63;;;;;;;7.25;71.10;96092.28;5091643;28;20437;-78
2023/02/16 09:26:14;;;;;;;66.13;36.97;;;;;;;7.38;69.90;96094.13;5091335;28;20479;-78
2023/02/16 09:28:41;;;;;;;57.60;33.00;;;;;;;7.43;69.42;96099.97;5091262;28;21007;-78
2023/02/16 09:31:12;;;;;;;50.73;30.87;;;;;;;7.23;68.74;96094.97;5091226;28;20451;-77
2023/02/16 09:33:40;;;;;;;56.07;32.57;;;;;;;6.98;69.48;96094.53;5091458;28;20440;-78
2023/02/16 09:36:08;;;;;;;57.57;33.13;;;;;;;6.95;70.43;96079.88;5091294;28;20483;-77
2023/02/16 09:38:35;;;;;;;66.73;35.90;;;;;;;7.07;70.62;96086.22;5091320;28;20864;-78
2023/02/16 09:41:08;;;;;;;52.60;32.10;;;;;;;7.06;70.81;96076.72;5071868;28;20438;-78
2023/02/16 09:43:45;;;;;;;57.40;33.40;;;;;;;7.24;70.75;96070.53;5091090;28;20906;-78
2023/02/16 09:46:15;;;;;;;58.67;34.60;;;;;;;7.53;70.47;96068.16;5091214;28;20806;-78
2023/02/16 09:48:47;;;;;;;62.33;33.50;;;;;;;7.52;69.94;96069.03;5071829;28;20433;-80
2023/02/16 09:51:19;;;;;;;53.83;31.13;;;;;;;7.46;68.30;96075.44;5059622;28;20437;-79
2023/02/16 09:53:54;;;;;;;46.87;31.17;;;;;;;8.57;75.87;96061.41;5095555;28;20472;-78
2023/02/16 09:56:29;;;;;;;59.60;34.13;;;;;;;8.46;67.30;96066.41;5094665;28;20492;-78
2023/02/16 09:59:03;;;;;;;42.03;26.70;;;;;;;8.02;65.49;96058.44;5094596;28;20923;-78
2023/02/16 10:01:37;;;;;;;46.57;27.03;;;;;;;7.86;66.34;96061.06;5095409;28;20460;-78
2023/02/16 10:04:30;;;;;;;59.77;32.00;;;;;;;7.93;66.53;96054.56;5095413;28;20456;-76
2023/02/16 10:07:09;;;;;;;58.50;32.97;;;;;;;8.13;67.20;96050.84;5095084;28;20506;-76
2023/02/16 10:09:39;;;;;;;63.37;32.50;;;;;;;8.19;66.97;96054.88;5095266;28;20489;-77
2023/02/16 10:12:12;;;;;;;55.80;33.00;;;;;;;8.11;66.98;96044.88;5094917;28;20441;-77
2023/02/16 10:14:43;;;;;;;58.73;32.70;;;;;;;8.06;67.57;96042.50;5095277;28;20446;-77
2023/02/16 10:17:20;;;;;;;58.20;32.77;;;;;;;8.08;67.16;96038.00;5060179;28;20458;-82
2023/02/16 10:19:53;;;;;;;50.57;28.93;;;;;;;8.02;66.41;96033.13;5095226;28;20445;-77
2023/02/16 10:22:28;;;;;;;52.03;31.40;;;;;;;7.83;66.62;96027.28;5095148;28;20445;-79
2023/02/16 10:25:01;;;;;;;49.77;30.87;;;;;;;8.07;67.32;96025.88;5094943;28;20480;-78
2023/02/16 10:27:38;;;;;;;49.33;29.73;;;;;;;7.85;67.23;96025.41;5095420;28;20450;-85
2023/02/16 10:30:13;;;;;;;51.50;31.60;;;;;;;7.81;67.91;96029.13;5095331;28;20455;-78
2023/02/16 10:32:48;;;;;;;55.13;30.30;;;;;;;7.74;68.39;96033.00;5095386;28;20544;-77
2023/02/16 10:35:18;;;;;;;51.60;29.37;;;;;;;7.81;68.54;96028.28;5077068;28;20483;-77
2023/02/16 10:37:58;;;;;;;48.63;30.20;;;;;;;7.93;68.65;96018.00;5076516;28;20532;-77
2023/02/16 10:40:35;;;;;;;60.27;30.83;;;;;;;7.75;67.79;96014.63;5095132;28;20452;-79
2023/02/16 10:43:11;;;;;;;50.10;31.73;;;;;;;7.96;70.37;96015.19;5094448;28;20452;-78
2023/02/16 10:45:45;;;;;;;55.37;29.70;;;;;;;8.05;67.69;96016.44;5094719;28;20513;-78
2023/02/16 10:48:12;;;;;;;51.30;28.03;;;;;;;7.95;67.20;96010.06;5094796;28;20514;-79
2023/02/16 10:50:42;;;;;;;45.67;28.67;;;;;;;7.96;67.52;96002.13;5095053;28;20442;-79
2023/02/16 10:53:15;;;;;;;51.40;29.10;;;;;;;8.13;67.21;96006.41;5094423;28;20928;-78
2023/02/16 10:55:42;;;;;;;42.47;26.77;;;;;;;8.24;66.98;96011.00;5094679;28;20528;-79
2023/02/16 10:58:19;;;;;;;47.07;28.17;;;;;;;8.26;67.25;96006.53;5094587;28;20502;-80
2023/02/16 11:00:52;;;;;;;46.97;28.13;;;;;;;8.32;67.00;95991.31;5094170;28;20456;-77
2023/02/16 11:03:24;;;;;;;46.43;27.20;;;;;;;8.41;66.11;95995.22;5094588;28;20444;-79
2023/02/16 11:05:52;;;;;;;45.30;28.87;;;;;;;8.47;65.99;95981.78;5094122;28;20834;-78
2023/02/16 11:08:18;;;;;;;45.93;29.77;;;;;;;8.35;66.04;95985.09;5093986;28;20974;-78
2023/02/16 11:10:49;;;;;;;57.33;31.13;;;;;;;8.51;66.24;95972.81;5094439;28;20871;-79
2023/02/16 11:13:30;;;;;;;53.37;27.40;;;;;;;8.82;66.44;95973.59;5094091;28;20457;-78
2023/02/16 11:16:00;;;;;;;42.23;27.50;;;;;;;8.75;65.61;95967.91;5093883;28;20526;-79
2023/02/16 11:18:38;;;;;;;41.07;26.13;;;;;;;8.83;65.93;95972.66;5094423;28;20446;-77
2023/02/16 11:21:06;;;;;;;45.10;27.30;;;;;;;8.76;64.87;95968.75;5093773;28;20445;-77
2023/02/16 11:23:34;;;;;;;43.90;25.33;;;;;;;8.73;64.35;95971.53;5093423;28;20495;-78
2023/02/16 11:26:04;;;;;;;42.53;25.63;;;;;;;8.78;63.79;95959.84;5094065;28;20504;-78
2023/02/16 11:28:35;;;;;;;47.33;28.83;;;;;;;8.75;64.54;95965.28;5058295;28;20457;-78
2023/02/16 11:31:12;;;;;;;43.00;28.60;;;;;;;8.81;65.48;95956.22;5093786;28;20810;-82
2023/02/16 11:33:41;;;;;;;42.20;25.33;;;;;;;9.01;62.93;95950.59;5093804;28;20500;-78
2023/02/16 11:36:20;;;;;;;38.70;26.33;;;;;;;9.08;62.66;95953.69;5058433;28;20483;-78
2023/02/16 11:38:57;;;;;;;37.83;25.27;;;;;;;9.18;61.91;95947.78;5093477;28;20994;-77
2023/02/16 11:41:25;;;;;;;41.50;24.13;;;;;;;8.99;62.37;95944.63;5093576;28;20806;-80
2023/02/16 11:43:55;;;;;;;37.80;24.47;;;;;;;8.96;62.44;95940.44;5093620;28;20493;-78
2023/02/16 11:46:24;;;;;;;46.07;24.27;;;;;;;8.99;61.54;95940.25;5074715;28;20454;-77
2023/02/16 11:48:51;;;;;;;40.50;22.33;;;;;;;9.12;60.18;95936.84;5093497;28;20550;-79
2023/02/16 11:51:32;;;;;;;37.63;23.87;;;;;;;9.08;60.35;95933.59;5093797;28;20443;-79
2023/02/16 11:54:02;;;;;;;38.37;23.70;;;;;;;9.24;61.39;95933.44;5093037;28;20442;-78
2023/02/16 11:56:32;;;;;;;36.37;24.10;;;;;;;9.25;60.47;95928.13;5093047;28;20490;-78
2023/02/16 11:59:13;;;;;;;36.63;23.70;;;;;;;9.43;60.43;95930.50;5093364;28;20458;-78
2023/02/16 12:02:07;;;;;;;36.73;23.00;;;;;;;9.56;58.72;95923.56;5093523;28;20920;-79
2023/02/16 12:04:50;;;;;;;35.17;22.83;;;;;;;9.73;58.87;95923.31;5093259;28;20462;-78
2023/02/16 12:07:26;;;;;;;38.87;23.00;;;;;;;9.88;58.92;95917.06;5093390;28;20482;-79
2023/02/16 12:10:02;;;;;;;44.77;24.97;;;;;;;9.75;59.52;95915.34;5093295;28;20451;-79
2023/02/16 12:12:37;;;;;;;33.47;21.90;;;;;;;9.76;58.96;95912.63;5092238;28;20453;-78
2023/02/16 12:15:16;;;;;;;42.40;24.03;;;;;;;9.77;59.32;95909.06;5092887;28;20507;-78
2023/02/16 12:18:13;;;;;;;45.83;23.70;;;;;;;9.86;58.87;95898.00;5057160;28;20442;-81